createdAt,value
2022-10-31T00:02:26.383Z,21.41
2022-10-31T00:04:52.657Z,21.38
2022-10-31T00:07:18.873Z,21.37
2022-10-31T00:09:45.082Z,21.34
2022-10-31T00:12:11.285Z,21.32
2022-10-31T00:14:37.506Z,21.30
2022-10-31T00:17:04.316Z,21.28
2022-10-31T00:19:30.961Z,21.26
2022-10-31T00:21:57.174Z,21.24
2022-10-31T00:24:23.980Z,21.22
2022-10-31T00:26:50.178Z,21.21
2022-10-31T00:29:16.391Z,21.19
2022-10-31T00:31:42.599Z,21.18
2022-10-31T00:34:08.824Z,21.17
2022-10-31T00:36:35.127Z,21.16
2022-10-31T00:39:01.350Z,21.14
2022-10-31T00:41:27.564Z,21.12
2022-10-31T00:43:53.765Z,21.11
2022-10-31T00:46:20.016Z,21.09
2022-10-31T00:48:46.317Z,21.07
2022-10-31T00:51:12.672Z,21.07
2022-10-31T00:53:38.921Z,21.06
2022-10-31T00:56:05.170Z,21.04
2022-10-31T00:58:31.416Z,21.04
2022-10-31T01:00:58.201Z,21.02
2022-10-31T01:03:24.432Z,21.02
2022-10-31T01:05:50.663Z,21.00
2022-10-31T01:08:16.937Z,20.98
2022-10-31T01:10:43.213Z,20.98
2022-10-31T01:13:09.977Z,20.99
2022-10-31T01:15:36.318Z,20.99
2022-10-31T01:18:02.753Z,20.98
2022-10-31T01:20:29.253Z,20.98
2022-10-31T01:22:55.463Z,20.97
2022-10-31T01:25:21.686Z,20.96
2022-10-31T01:27:48.211Z,20.96
2022-10-31T01:30:14.607Z,20.96
2022-10-31T01:32:41.092Z,20.94
2022-10-31T01:35:07.593Z,20.94
2022-10-31T01:37:34.074Z,20.95
2022-10-31T01:40:00.364Z,20.94
2022-10-31T01:42:26.615Z,20.94
2022-10-31T01:44:52.876Z,20.93
2022-10-31T01:50:03.145Z,20.92
2022-10-31T01:52:29.392Z,20.91
2022-10-31T01:54:55.644Z,20.89
2022-10-31T01:57:22.874Z,20.88
2022-10-31T01:59:49.097Z,20.86
2022-10-31T02:02:15.538Z,20.85
2022-10-31T02:04:41.914Z,20.80
2022-10-31T02:07:08.212Z,20.79
2022-10-31T02:09:34.426Z,20.77
2022-10-31T02:12:00.740Z,20.75
2022-10-31T02:14:26.981Z,20.74
2022-10-31T02:16:53.205Z,20.72
2022-10-31T02:19:19.630Z,20.69
2022-10-31T02:21:45.912Z,20.69
2022-10-31T02:24:12.211Z,20.67
2022-10-31T02:26:38.471Z,20.64
2022-10-31T02:29:04.748Z,20.63
2022-10-31T02:31:30.949Z,20.61
2022-10-31T02:33:57.135Z,20.60
2022-10-31T02:36:23.735Z,20.57
2022-10-31T02:38:49.953Z,20.56
2022-10-31T02:41:16.186Z,20.53
2022-10-31T02:43:42.424Z,20.52
2022-10-31T02:46:08.728Z,20.50
2022-10-31T02:48:35.364Z,20.47
2022-10-31T02:51:01.734Z,20.46
2022-10-31T02:53:28.616Z,20.45
2022-10-31T02:55:54.864Z,20.43
2022-10-31T02:58:21.108Z,20.41
2022-10-31T03:00:51.163Z,20.40
2022-10-31T03:03:18.925Z,20.38
2022-10-31T03:05:45.174Z,20.37
2022-10-31T03:08:11.811Z,20.35
2022-10-31T03:10:38.219Z,20.34
2022-10-31T03:13:04.653Z,20.32
2022-10-31T03:15:31.101Z,20.32
2022-10-31T03:17:57.709Z,20.30
2022-10-31T03:20:24.260Z,20.29
2022-10-31T03:22:50.518Z,20.29
2022-10-31T03:25:16.761Z,20.28
2022-10-31T03:27:43.051Z,20.28
2022-10-31T03:30:09.251Z,20.27
2022-10-31T03:32:35.652Z,20.25
2022-10-31T03:35:01.978Z,20.24
2022-10-31T03:37:28.191Z,20.22
2022-10-31T03:39:54.526Z,20.20
2022-10-31T03:42:21.564Z,20.17
2022-10-31T03:44:47.784Z,20.15
2022-10-31T03:47:13.969Z,20.13
2022-10-31T03:49:40.246Z,20.11
2022-10-31T03:52:06.455Z,20.09
2022-10-31T03:54:33.225Z,20.07
2022-10-31T03:56:59.411Z,20.05
2022-10-31T03:59:25.606Z,20.02
2022-10-31T04:01:51.988Z,20.00
2022-10-31T04:04:18.351Z,19.98
2022-10-31T04:06:44.535Z,19.96
2022-10-31T04:09:10.746Z,19.94
2022-10-31T04:11:37.017Z,19.92
2022-10-31T04:14:03.215Z,19.90
2022-10-31T04:16:30.657Z,19.89
2022-10-31T04:18:56.985Z,19.88
2022-10-31T04:21:23.371Z,19.86
2022-10-31T04:23:49.875Z,19.85
2022-10-31T04:26:16.569Z,19.84
2022-10-31T04:28:42.796Z,19.82
2022-10-31T04:31:09.248Z,19.80
2022-10-31T04:33:36.320Z,19.79
2022-10-31T04:36:02.582Z,19.77
2022-10-31T04:38:28.803Z,19.76
2022-10-31T04:40:55.031Z,19.73
2022-10-31T04:43:21.247Z,19.72
2022-10-31T04:45:47.537Z,19.69
2022-10-31T04:48:13.793Z,19.69
2022-10-31T04:50:41.134Z,19.67
2022-10-31T04:53:07.335Z,19.65
2022-10-31T04:55:33.787Z,19.62
2022-10-31T04:58:01.166Z,19.61
2022-10-31T05:00:27.923Z,19.58
2022-10-31T05:02:54.212Z,19.43
2022-10-31T05:05:20.820Z,19.56
2022-10-31T05:07:47.076Z,19.54
2022-10-31T05:10:13.373Z,19.53
2022-10-31T05:12:39.650Z,19.51
2022-10-31T05:15:05.850Z,19.49
2022-10-31T05:17:32.554Z,19.48
2022-10-31T05:19:58.762Z,19.45
2022-10-31T05:22:25.106Z,19.42
2022-10-31T05:24:51.635Z,19.40
2022-10-31T05:27:17.988Z,19.39
2022-10-31T05:29:44.277Z,19.37
2022-10-31T05:32:10.478Z,19.35
2022-10-31T05:34:37.634Z,19.34
2022-10-31T05:37:04.946Z,19.31
2022-10-31T05:39:31.586Z,19.29
2022-10-31T05:41:58.960Z,19.27
2022-10-31T05:44:25.183Z,19.25
2022-10-31T05:46:51.433Z,19.23
2022-10-31T05:49:17.979Z,19.20
2022-10-31T05:51:44.368Z,19.18
2022-10-31T05:54:14.762Z,19.16
2022-10-31T05:56:42.204Z,19.14
2022-10-31T05:59:08.555Z,19.11
2022-10-31T06:01:34.863Z,19.09
2022-10-31T06:04:01.154Z,18.97
2022-10-31T06:06:27.362Z,19.06
2022-10-31T06:08:53.771Z,19.05
2022-10-31T06:11:20.821Z,19.03
2022-10-31T06:13:47.062Z,19.02
2022-10-31T06:16:25.176Z,19.01
2022-10-31T06:18:52.253Z,18.99
2022-10-31T06:21:19.438Z,18.99
2022-10-31T06:23:46.705Z,18.98
2022-10-31T06:26:13.753Z,18.97
2022-10-31T06:28:41.364Z,18.96
2022-10-31T06:31:07.632Z,18.95
2022-10-31T06:33:33.854Z,18.95
2022-10-31T06:36:00.159Z,18.96
2022-10-31T06:38:26.380Z,18.95
2022-10-31T06:40:52.646Z,18.96
2022-10-31T06:43:18.847Z,18.96
2022-10-31T06:45:45.245Z,18.98
2022-10-31T06:48:17.064Z,19.01
2022-10-31T06:50:45.672Z,19.08
2022-10-31T06:53:13.017Z,19.19
2022-10-31T06:55:39.373Z,19.31
2022-10-31T06:58:06.070Z,19.45
2022-10-31T07:00:32.644Z,19.59
2022-10-31T07:02:59.767Z,19.70
2022-10-31T07:05:26.257Z,19.82
2022-10-31T07:07:52.902Z,19.90
2022-10-31T07:10:19.262Z,19.99
2022-10-31T07:12:45.494Z,20.07
2022-10-31T07:15:11.978Z,20.15
2022-10-31T07:17:39.901Z,20.22
2022-10-31T07:20:06.512Z,20.27
2022-10-31T07:22:32.766Z,20.32
2022-10-31T07:24:59.150Z,20.39
2022-10-31T07:27:25.740Z,20.47
2022-10-31T07:29:51.970Z,20.55
2022-10-31T07:32:18.181Z,20.67
2022-10-31T07:34:47.381Z,20.72
2022-10-31T07:37:15.478Z,20.78
2022-10-31T07:39:41.822Z,20.87
2022-10-31T07:42:08.082Z,20.94
2022-10-31T07:44:34.365Z,20.94
2022-10-31T07:47:00.756Z,20.98
2022-10-31T07:49:27.439Z,21.05
2022-10-31T07:51:53.942Z,21.06
2022-10-31T07:54:20.230Z,21.06
2022-10-31T07:56:46.503Z,21.08
2022-10-31T07:59:12.888Z,21.07
2022-10-31T08:01:39.141Z,21.09
2022-10-31T08:04:05.485Z,21.10
2022-10-31T08:06:31.782Z,21.12
2022-10-31T08:08:57.999Z,21.16
2022-10-31T08:11:24.722Z,21.17
2022-10-31T08:13:50.959Z,21.20
2022-10-31T08:16:17.235Z,21.25
2022-10-31T08:18:43.936Z,21.31
2022-10-31T08:21:10.265Z,21.36
2022-10-31T08:23:36.960Z,21.43
2022-10-31T08:26:03.907Z,21.50
2022-10-31T08:28:30.156Z,21.56
2022-10-31T08:30:56.718Z,21.57
2022-10-31T08:33:22.953Z,21.60
2022-10-31T08:35:49.334Z,21.62
2022-10-31T08:38:15.640Z,21.67
2022-10-31T08:40:41.869Z,21.70
2022-10-31T08:43:08.120Z,21.72
2022-10-31T08:45:34.687Z,21.75
2022-10-31T08:48:02.596Z,21.83
2022-10-31T08:50:29.195Z,21.87
2022-10-31T08:53:10.021Z,21.91
2022-10-31T08:55:36.590Z,21.96
2022-10-31T08:58:03.617Z,21.99
2022-10-31T09:00:30.665Z,22.00
2022-10-31T09:02:56.942Z,22.01
2022-10-31T09:05:23.195Z,22.05
2022-10-31T09:07:49.662Z,22.11
2022-10-31T09:10:15.907Z,22.13
2022-10-31T09:12:42.108Z,22.15
2022-10-31T09:15:08.391Z,22.20
2022-10-31T09:17:34.727Z,22.24
2022-10-31T09:20:01.161Z,22.26
2022-10-31T09:22:27.614Z,22.31
2022-10-31T09:24:54.273Z,22.37
2022-10-31T09:27:20.502Z,22.42
2022-10-31T09:29:46.958Z,22.45
2022-10-31T09:32:13.183Z,22.49
2022-10-31T09:34:39.548Z,22.52
2022-10-31T09:37:05.854Z,22.56
2022-10-31T09:39:32.149Z,22.60
2022-10-31T09:41:58.364Z,22.64
2022-10-31T09:44:24.620Z,22.68
2022-10-31T09:46:50.838Z,22.66
2022-10-31T09:49:17.130Z,22.68
2022-10-31T09:51:43.370Z,22.71
2022-10-31T09:54:09.764Z,22.75
2022-10-31T09:56:37.795Z,22.78
2022-10-31T09:59:04.003Z,22.82
2022-10-31T10:01:30.737Z,22.87
2022-10-31T10:03:57.252Z,22.90
2022-10-31T10:06:23.518Z,22.94
2022-10-31T10:08:49.773Z,22.97
2022-10-31T10:11:16.092Z,23.00
2022-10-31T10:13:42.331Z,23.02
2022-10-31T10:16:08.731Z,23.04
2022-10-31T10:18:35.237Z,23.07
2022-10-31T10:21:01.925Z,23.11
2022-10-31T10:23:28.435Z,23.11
2022-10-31T10:25:54.660Z,23.16
2022-10-31T10:28:20.879Z,23.17
2022-10-31T10:30:47.182Z,23.21
2022-10-31T10:33:13.578Z,23.25
2022-10-31T10:35:39.926Z,23.30
2022-10-31T10:38:06.900Z,23.32
2022-10-31T10:40:33.287Z,23.35
2022-10-31T10:42:59.551Z,23.39
2022-10-31T10:45:25.774Z,23.42
2022-10-31T10:47:51.970Z,23.44
2022-10-31T10:50:18.308Z,23.46
2022-10-31T10:52:50.273Z,23.49
2022-10-31T10:55:17.219Z,23.52
2022-10-31T10:57:43.457Z,23.55
2022-10-31T11:00:09.737Z,23.56
2022-10-31T11:02:35.989Z,23.59
2022-10-31T11:05:02.382Z,23.61
2022-10-31T11:07:29.242Z,23.62
2022-10-31T11:09:55.498Z,23.66
2022-10-31T11:12:21.866Z,23.67
2022-10-31T11:14:48.575Z,23.70
2022-10-31T11:17:14.828Z,23.72
2022-10-31T11:19:41.271Z,23.73
2022-10-31T11:22:07.956Z,23.75
2022-10-31T11:24:34.261Z,23.78
2022-10-31T11:27:00.550Z,23.77
2022-10-31T11:29:26.938Z,23.80
2022-10-31T11:31:53.147Z,23.83
2022-10-31T11:34:19.639Z,23.85
2022-10-31T11:36:45.859Z,23.86
2022-10-31T11:39:12.075Z,23.89
2022-10-31T11:41:38.310Z,23.93
2022-10-31T11:44:04.571Z,23.93
2022-10-31T11:46:31.326Z,23.95
2022-10-31T11:48:57.541Z,23.97
2022-10-31T11:51:23.847Z,24.00
2022-10-31T11:53:50.245Z,24.01
2022-10-31T11:56:16.500Z,24.01
2022-10-31T11:58:43.007Z,24.03
2022-10-31T12:01:09.349Z,24.03
2022-10-31T12:03:35.594Z,24.05
2022-10-31T12:06:02.527Z,24.08
2022-10-31T12:08:28.913Z,24.08
2022-10-31T12:10:55.206Z,24.08
2022-10-31T12:13:21.430Z,24.09
2022-10-31T12:15:47.741Z,24.10
2022-10-31T12:18:13.983Z,24.11
2022-10-31T12:20:40.554Z,24.13
2022-10-31T12:23:06.861Z,24.14
2022-10-31T12:25:33.142Z,24.13
2022-10-31T12:27:59.379Z,24.13
2022-10-31T12:30:25.641Z,24.12
2022-10-31T12:32:51.962Z,24.14
2022-10-31T12:35:18.254Z,24.14
2022-10-31T12:37:44.608Z,24.13
2022-10-31T12:40:10.810Z,24.09
2022-10-31T12:42:37.084Z,24.07
2022-10-31T12:45:03.318Z,24.04
2022-10-31T12:47:29.647Z,24.02
2022-10-31T12:49:55.937Z,24.01
2022-10-31T12:52:22.214Z,24.00
2022-10-31T12:54:48.545Z,23.98
2022-10-31T12:57:15.921Z,23.95
2022-10-31T12:59:42.469Z,23.94
2022-10-31T13:02:08.741Z,23.93
2022-10-31T13:04:35.968Z,23.90
2022-10-31T13:07:02.973Z,23.89
2022-10-31T13:09:29.268Z,23.78
2022-10-31T13:11:55.543Z,23.86
2022-10-31T13:14:21.779Z,23.85
2022-10-31T13:16:48.254Z,23.84
2022-10-31T13:19:14.778Z,23.83
2022-10-31T13:21:41.048Z,23.82
2022-10-31T13:24:07.254Z,23.80
2022-10-31T13:26:34.961Z,23.79
2022-10-31T13:29:01.202Z,23.78
2022-10-31T13:31:27.762Z,23.77
2022-10-31T13:33:53.994Z,23.76
2022-10-31T13:36:20.693Z,23.74
2022-10-31T13:38:46.973Z,23.72
2022-10-31T13:41:13.846Z,23.71
2022-10-31T13:43:40.095Z,23.71
2022-10-31T13:46:06.310Z,23.68
2022-10-31T13:48:39.443Z,23.67
2022-10-31T13:51:05.840Z,23.65
2022-10-31T13:53:32.417Z,23.64
2022-10-31T13:55:59.020Z,23.62
2022-10-31T13:58:25.964Z,23.62
2022-10-31T14:00:52.359Z,23.60
2022-10-31T14:03:35.920Z,23.58
2022-10-31T14:06:05.529Z,23.56
2022-10-31T14:08:35.362Z,23.55
2022-10-31T14:11:04.719Z,23.53
2022-10-31T14:13:31.257Z,23.51
2022-10-31T14:15:57.589Z,23.50
2022-10-31T14:18:24.226Z,23.48
2022-10-31T14:20:50.556Z,23.46
2022-10-31T14:23:17.040Z,23.43
2022-10-31T14:25:43.343Z,23.42
2022-10-31T14:28:09.796Z,23.40
2022-10-31T14:30:36.166Z,23.39
2022-10-31T14:33:03.039Z,23.36
2022-10-31T14:35:29.401Z,23.35
2022-10-31T14:38:00.136Z,23.33
2022-10-31T14:40:27.010Z,23.32
2022-10-31T14:42:55.411Z,23.31
2022-10-31T14:45:22.356Z,23.29
2022-10-31T14:47:48.986Z,23.27
2022-10-31T14:50:15.443Z,23.26
2022-10-31T14:52:41.792Z,23.25
2022-10-31T14:55:08.140Z,23.22
2022-10-31T14:57:37.710Z,23.20
2022-10-31T15:00:04.608Z,23.19
2022-10-31T15:02:31.022Z,23.17
2022-10-31T15:05:02.452Z,23.15
2022-10-31T15:07:32.427Z,23.14
2022-10-31T15:10:02.075Z,23.12
2022-10-31T15:12:28.809Z,23.10
2022-10-31T15:14:55.389Z,23.07
2022-10-31T15:17:24.630Z,23.06
2022-10-31T15:19:50.966Z,23.04
2022-10-31T15:22:17.502Z,23.03
2022-10-31T15:24:44.087Z,23.01
2022-10-31T15:27:10.794Z,22.99
2022-10-31T15:29:37.321Z,22.97
2022-10-31T15:32:03.829Z,22.95
2022-10-31T15:34:32.154Z,22.94
2022-10-31T15:36:59.174Z,22.92
2022-10-31T15:39:26.427Z,22.90
2022-10-31T15:41:55.006Z,22.88
2022-10-31T15:44:22.798Z,22.86
2022-10-31T15:46:49.287Z,22.84
2022-10-31T15:49:16.811Z,22.83
2022-10-31T15:51:48.244Z,22.81
2022-10-31T15:54:21.496Z,22.79
2022-10-31T15:56:48.980Z,22.78
2022-10-31T15:59:15.707Z,22.76
2022-10-31T16:01:42.187Z,22.74
2022-10-31T16:04:09.369Z,22.72
2022-10-31T16:06:36.151Z,22.70
2022-10-31T16:09:06.709Z,22.69
2022-10-31T16:11:34.336Z,22.67
2022-10-31T16:14:00.691Z,22.65
2022-10-31T16:16:35.662Z,22.63
2022-10-31T16:19:03.529Z,22.62
2022-10-31T16:21:31.014Z,22.61
2022-10-31T16:23:58.312Z,22.59
2022-10-31T16:26:25.549Z,22.56
2022-10-31T16:28:51.869Z,22.56
2022-10-31T16:31:19.345Z,22.53
2022-10-31T16:33:45.723Z,22.52
2022-10-31T16:36:33.861Z,22.50
2022-10-31T16:38:58.855Z,22.49
2022-10-31T16:41:25.829Z,22.46
2022-10-31T16:43:52.619Z,22.46
2022-10-31T16:46:19.562Z,22.45
2022-10-31T16:48:46.078Z,22.42
2022-10-31T16:51:12.486Z,22.40
2022-10-31T16:53:42.769Z,22.39
2022-10-31T16:56:12.157Z,22.38
2022-10-31T16:58:38.838Z,22.35
2022-10-31T17:01:05.293Z,22.35
2022-10-31T17:03:32.317Z,22.34
2022-10-31T17:05:58.665Z,22.32
2022-10-31T17:08:25.040Z,22.31
2022-10-31T17:10:51.492Z,22.29
2022-10-31T17:13:17.840Z,22.29
2022-10-31T17:15:44.207Z,22.28
2022-10-31T17:18:10.684Z,22.26
2022-10-31T17:20:36.935Z,22.26
2022-10-31T17:23:04.401Z,22.24
2022-10-31T17:25:30.957Z,22.22
2022-10-31T17:27:57.629Z,22.21
2022-10-31T17:30:23.943Z,22.19
2022-10-31T17:32:50.993Z,22.20
2022-10-31T17:35:17.317Z,22.18
2022-10-31T17:37:43.593Z,22.17
2022-10-31T17:40:10.015Z,22.16
2022-10-31T17:42:36.317Z,22.15
2022-10-31T17:45:03.771Z,22.14
2022-10-31T17:47:30.061Z,22.12
2022-10-31T17:49:56.522Z,22.12
2022-10-31T17:52:23.678Z,22.11
2022-10-31T17:54:50.014Z,22.10
2022-10-31T17:57:16.487Z,22.09
2022-10-31T17:59:43.442Z,22.07
2022-10-31T18:02:10.564Z,22.07
2022-10-31T18:04:36.956Z,22.05
2022-10-31T18:07:03.375Z,22.05
2022-10-31T18:09:29.675Z,22.03
2022-10-31T18:11:57.538Z,22.03
2022-10-31T18:14:23.873Z,21.88
2022-10-31T18:16:51.704Z,22.00
2022-10-31T18:19:18.288Z,22.00
2022-10-31T18:21:44.673Z,21.98
2022-10-31T18:24:11.257Z,21.99
2022-10-31T18:26:39.894Z,21.98
2022-10-31T18:29:06.215Z,21.96
2022-10-31T18:31:33.421Z,21.95
2022-10-31T18:33:59.742Z,21.94
2022-10-31T18:36:26.104Z,21.93
2022-10-31T18:38:55.187Z,21.92
2022-10-31T18:41:21.476Z,21.91
2022-10-31T18:43:49.539Z,21.90
2022-10-31T18:46:15.814Z,21.89
2022-10-31T18:48:42.104Z,21.87
2022-10-31T18:51:08.438Z,21.87
2022-10-31T18:53:34.731Z,21.85
2022-10-31T18:56:01.394Z,21.83
2022-10-31T18:58:30.705Z,21.84
2022-10-31T19:00:57.383Z,21.81
2022-10-31T19:03:26.212Z,21.80
2022-10-31T19:05:52.711Z,21.80
2022-10-31T19:08:19.800Z,21.78
2022-10-31T19:10:46.600Z,21.76
2022-10-31T19:13:14.091Z,21.75
2022-10-31T19:15:41.287Z,21.74
2022-10-31T19:18:07.804Z,21.72
2022-10-31T19:20:34.151Z,21.72
2022-10-31T19:23:01.875Z,21.72
2022-10-31T19:25:28.336Z,21.72
2022-10-31T19:27:55.074Z,21.71
2022-10-31T19:30:21.549Z,21.69
2022-10-31T19:32:47.948Z,21.68
2022-10-31T19:35:14.275Z,21.69
2022-10-31T19:37:40.681Z,21.67
2022-10-31T19:40:06.976Z,21.65
2022-10-31T19:42:34.044Z,21.65
2022-10-31T19:45:00.374Z,21.65
2022-10-31T19:47:26.687Z,21.64
2022-10-31T19:49:53.045Z,21.63
2022-10-31T19:52:19.361Z,21.62
2022-10-31T19:54:45.664Z,21.62
2022-10-31T19:57:12.100Z,21.61
2022-10-31T19:59:39.630Z,21.60
2022-10-31T20:02:06.182Z,21.60
2022-10-31T20:04:32.550Z,21.60
2022-10-31T20:06:59.262Z,21.60
2022-10-31T20:09:26.324Z,21.60
2022-10-31T20:11:52.819Z,21.60
2022-10-31T20:14:20.421Z,21.59
2022-10-31T20:16:46.805Z,21.59
2022-10-31T20:19:14.628Z,21.59
2022-10-31T20:21:41.220Z,21.59
2022-10-31T20:24:07.643Z,21.59
2022-10-31T20:26:34.001Z,21.57
2022-10-31T20:29:00.405Z,21.58
2022-10-31T20:31:26.775Z,21.58
2022-10-31T20:33:53.446Z,21.57
2022-10-31T20:36:19.775Z,21.56
2022-10-31T20:38:47.802Z,21.56
2022-10-31T20:41:15.737Z,21.56
2022-10-31T20:43:42.088Z,21.55
2022-10-31T20:46:08.398Z,21.55
2022-10-31T20:48:34.692Z,21.54
2022-10-31T20:51:01.247Z,21.53
2022-10-31T20:53:27.708Z,21.53
2022-10-31T20:55:55.172Z,21.53
2022-10-31T20:58:21.537Z,21.52
2022-10-31T21:00:47.811Z,21.51
2022-10-31T21:03:14.126Z,21.51
2022-10-31T21:05:40.372Z,21.50
2022-10-31T21:08:08.751Z,21.49
2022-10-31T21:10:35.258Z,21.47
2022-10-31T21:13:01.908Z,21.47
2022-10-31T21:15:28.387Z,21.47
2022-10-31T21:17:54.777Z,21.44
2022-10-31T21:20:22.410Z,21.44
2022-10-31T21:22:48.735Z,21.44
2022-10-31T21:25:15.037Z,21.41
2022-10-31T21:27:41.343Z,21.41
2022-10-31T21:30:07.615Z,21.42
2022-10-31T21:32:33.954Z,21.42
2022-10-31T21:35:03.320Z,21.41
2022-10-31T21:37:30.361Z,21.41
2022-10-31T21:39:57.060Z,21.39
2022-10-31T21:42:23.345Z,21.39
2022-10-31T21:44:51.817Z,21.39
2022-10-31T21:47:18.227Z,21.38
2022-10-31T21:49:44.650Z,21.38
2022-10-31T21:52:11.054Z,21.35
2022-10-31T21:54:37.232Z,21.36
2022-10-31T21:57:04.063Z,21.35
2022-10-31T21:59:30.474Z,21.35
2022-10-31T22:01:57.378Z,21.33
2022-10-31T22:04:23.700Z,21.31
2022-10-31T22:06:50.078Z,21.32
2022-10-31T22:09:16.490Z,21.31
2022-10-31T22:11:42.876Z,21.30
2022-10-31T22:14:09.877Z,21.29
2022-10-31T22:16:36.254Z,21.28
2022-10-31T22:19:02.699Z,21.28
2022-10-31T22:21:29.033Z,21.27
2022-10-31T22:23:55.274Z,21.25
2022-10-31T22:26:21.568Z,21.25
2022-10-31T22:28:47.880Z,21.23
2022-10-31T22:31:14.181Z,21.23
2022-10-31T22:33:40.413Z,21.21
2022-10-31T22:36:06.695Z,21.21
2022-10-31T22:38:32.982Z,21.19
2022-10-31T22:40:59.243Z,21.19
2022-10-31T22:43:25.597Z,21.18
2022-10-31T22:45:52.846Z,21.18
2022-10-31T22:48:19.153Z,21.16
2022-10-31T22:50:45.617Z,21.13
2022-10-31T22:53:11.928Z,21.11
2022-10-31T22:55:39.822Z,21.07
2022-10-31T22:58:06.427Z,21.03
2022-10-31T23:00:34.687Z,20.99
2022-10-31T23:03:03.169Z,20.95
2022-10-31T23:05:30.647Z,20.91
2022-10-31T23:07:56.934Z,20.87
2022-10-31T23:10:23.395Z,20.83
2022-10-31T23:12:49.773Z,20.80
2022-10-31T23:15:16.025Z,20.76
2022-10-31T23:17:42.696Z,20.73
2022-10-31T23:20:09.106Z,20.69
2022-10-31T23:22:35.485Z,20.67
2022-10-31T23:25:02.511Z,20.62
2022-10-31T23:27:28.821Z,20.58
2022-10-31T23:29:55.146Z,20.56
2022-10-31T23:32:21.702Z,20.52
2022-10-31T23:34:48.082Z,20.50
2022-10-31T23:37:14.402Z,20.46
2022-10-31T23:39:40.654Z,20.42
2022-10-31T23:42:07.048Z,20.40
2022-10-31T23:44:34.640Z,20.38
2022-10-31T23:47:01.090Z,20.35
2022-10-31T23:49:28.202Z,20.32
2022-10-31T23:51:54.455Z,20.28
2022-10-31T23:54:20.780Z,20.28
2022-10-31T23:56:47.101Z,20.25
2022-10-31T23:59:13.406Z,20.23
